Check out our new PWSWeather beta!
PWSweather.com
Personal Weather Stations
Station Observations
COONRAPIDS
Minneapolis, MN 55433

Minneapolis, MN 55433

Lat: 45.187721, Lon: -93.36828

Elevation: 898

Station Type: Davis Vantage Pro 2

High Low Average
Temperature 24.8°F-4.0°C 1.8°F-16.8°C 13.7°F-10.2°C
Dew Point 21.8°F-5.7°C -5.1°F-20.6°C 8.5°F-13.1°C
Winds 6.9 mph 11.1 kmh Calm Calm 2.0 mph WSW3.2 kmh WSW
Wind Gusts 19.6 mph31.5 kmh -- 5.0 mph8.0 kmh
Humidity 88% 71% 80%
Pressure 30.23 in1023.7 mb 29.77 in1008.1 mb -
Precipitation 0.00 in0.0 mm - -
Hour Temp Dew Point Humidity Winds Wind Gusts Pressure Precip Precip Rate Daily Precip Total
12:00 AM 23.6°F-4.7°C 20.3°F-6.5°C 87% 1.2 mph E1.9 kmh E 2.3 mph3.7 kmh 29.97 in1014.9 mb - 0.00 in0.0 mm 0.00 in0.0 mm
12:10 AM 23.7°F-4.6°C 20.4°F-6.4°C 87% 1.2 mph ESE1.9 kmh ESE 2.3 mph3.7 kmh 29.96 in1014.6 mb - 0.00 in0.0 mm 0.00 in0.0 mm
12:20 AM 23.8°F-4.6°C 20.5°F-6.4°C 87% Calm Calm -- 29.95 in1014.2 mb - 0.00 in0.0 mm 0.00 in0.0 mm
12:30 AM 24.0°F-4.4°C 20.7°F-6.3°C 87% Calm Calm -- 29.94 in1013.9 mb - 0.00 in0.0 mm 0.00 in0.0 mm
12:40 AM 24.0°F-4.4°C 20.7°F-6.3°C 87% 2.3 mph SE3.7 kmh SE 3.5 mph5.6 kmh 29.94 in1013.9 mb - 0.00 in0.0 mm 0.00 in0.0 mm
12:50 AM 23.9°F-4.5°C 20.6°F-6.3°C 87% Calm Calm 1.2 mph1.9 kmh 29.93 in1013.5 mb - 0.00 in0.0 mm 0.00 in0.0 mm
01:00 AM 23.9°F-4.5°C 20.6°F-6.3°C 87% Calm Calm -- 29.92 in1013.2 mb - 0.00 in0.0 mm 0.00 in0.0 mm
01:10 AM 24.0°F-4.4°C 21.0°F-6.1°C 88% Calm Calm -- 29.92 in1013.2 mb - 0.00 in0.0 mm 0.00 in0.0 mm
01:20 AM 24.1°F-4.4°C 20.8°F-6.2°C 87% Calm Calm -- 29.91 in1012.9 mb - 0.00 in0.0 mm 0.00 in0.0 mm
01:30 AM 24.2°F-4.3°C 20.9°F-6.2°C 87% Calm Calm -- 29.90 in1012.5 mb - 0.00 in0.0 mm 0.00 in0.0 mm
01:40 AM 24.2°F-4.3°C 20.9°F-6.2°C 87% Calm Calm -- 29.90 in1012.5 mb - 0.00 in0.0 mm 0.00 in0.0 mm
01:50 AM 24.2°F-4.3°C 21.2°F-6.0°C 88% Calm Calm -- 29.90 in1012.5 mb - 0.00 in0.0 mm 0.00 in0.0 mm
02:00 AM 24.3°F-4.3°C 21.3°F-5.9°C 88% Calm Calm -- 29.89 in1012.2 mb - 0.00 in0.0 mm 0.00 in0.0 mm
02:10 AM 24.4°F-4.2°C 21.4°F-5.9°C 88% Calm Calm -- 29.87 in1011.5 mb - 0.00 in0.0 mm 0.00 in0.0 mm
02:20 AM 24.5°F-4.2°C 21.5°F-5.8°C 88% Calm Calm -- 29.87 in1011.5 mb - 0.00 in0.0 mm 0.00 in0.0 mm
02:30 AM 24.5°F-4.2°C 21.5°F-5.8°C 88% Calm Calm -- 29.87 in1011.5 mb - 0.00 in0.0 mm 0.00 in0.0 mm
02:40 AM 24.6°F-4.1°C 21.5°F-5.8°C 88% Calm Calm -- 29.87 in1011.5 mb - 0.00 in0.0 mm 0.00 in0.0 mm
02:50 AM 24.5°F-4.2°C 21.5°F-5.8°C 88% Calm Calm 2.3 mph3.7 kmh 29.86 in1011.2 mb - 0.00 in0.0 mm 0.00 in0.0 mm
03:00 AM 24.5°F-4.2°C 21.5°F-5.8°C 88% Calm Calm -- 29.85 in1010.8 mb - 0.00 in0.0 mm 0.00 in0.0 mm
03:10 AM 24.6°F-4.1°C 21.6°F-5.8°C 88% Calm Calm -- 29.84 in1010.5 mb - 0.00 in0.0 mm 0.00 in0.0 mm
03:20 AM 24.6°F-4.1°C 21.6°F-5.8°C 88% Calm Calm -- 29.84 in1010.5 mb - 0.00 in0.0 mm 0.00 in0.0 mm
03:30 AM 24.7°F-4.1°C 21.7°F-5.7°C 88% Calm Calm -- 29.84 in1010.5 mb - 0.00 in0.0 mm 0.00 in0.0 mm
03:40 AM 24.7°F-4.1°C 21.7°F-5.7°C 88% Calm Calm 1.2 mph1.9 kmh 29.83 in1010.2 mb - 0.00 in0.0 mm 0.00 in0.0 mm
03:50 AM 24.7°F-4.1°C 21.7°F-5.7°C 88% Calm Calm -- 29.83 in1010.2 mb - 0.00 in0.0 mm 0.00 in0.0 mm
04:00 AM 24.7°F-4.1°C 21.7°F-5.7°C 88% Calm Calm -- 29.83 in1010.2 mb - 0.00 in0.0 mm 0.00 in0.0 mm
04:10 AM 24.8°F-4.0°C 21.8°F-5.7°C 88% Calm Calm -- 29.82 in1009.8 mb - 0.00 in0.0 mm 0.00 in0.0 mm
04:20 AM 24.8°F-4.0°C 21.8°F-5.7°C 88% Calm Calm -- 29.82 in1009.8 mb - 0.00 in0.0 mm 0.00 in0.0 mm
04:30 AM 24.8°F-4.0°C 21.8°F-5.7°C 88% Calm Calm -- 29.81 in1009.5 mb - 0.00 in0.0 mm 0.00 in0.0 mm
04:40 AM 24.8°F-4.0°C 21.7°F-5.7°C 88% Calm Calm -- 29.80 in1009.1 mb - 0.00 in0.0 mm 0.00 in0.0 mm
04:50 AM 24.7°F-4.1°C 21.7°F-5.7°C 88% Calm Calm -- 29.80 in1009.1 mb - 0.00 in0.0 mm 0.00 in0.0 mm
05:00 AM 24.7°F-4.1°C 21.7°F-5.7°C 88% Calm Calm -- 29.80 in1009.1 mb - 0.00 in0.0 mm 0.00 in0.0 mm
05:10 AM 24.7°F-4.1°C 21.6°F-5.8°C 88% Calm Calm -- 29.80 in1009.1 mb - 0.00 in0.0 mm 0.00 in0.0 mm
05:20 AM 24.5°F-4.2°C 21.5°F-5.8°C 88% Calm Calm -- 29.79 in1008.8 mb - 0.00 in0.0 mm 0.00 in0.0 mm
05:30 AM 24.5°F-4.2°C 21.5°F-5.8°C 88% Calm Calm -- 29.79 in1008.8 mb - 0.00 in0.0 mm 0.00 in0.0 mm
05:40 AM 24.4°F-4.2°C 21.4°F-5.9°C 88% Calm Calm -- 29.79 in1008.8 mb - 0.00 in0.0 mm 0.00 in0.0 mm
05:50 AM 24.4°F-4.2°C 21.4°F-5.9°C 88% Calm Calm -- 29.79 in1008.8 mb - 0.00 in0.0 mm 0.00 in0.0 mm
06:00 AM 24.3°F-4.3°C 21.3°F-5.9°C 88% Calm Calm -- 29.79 in1008.8 mb - 0.00 in0.0 mm 0.00 in0.0 mm
06:10 AM 24.3°F-4.3°C 21.3°F-5.9°C 88% Calm Calm -- 29.79 in1008.8 mb - 0.00 in0.0 mm 0.00 in0.0 mm
06:20 AM 24.3°F-4.3°C 21.3°F-5.9°C 88% Calm Calm -- 29.78 in1008.5 mb - 0.00 in0.0 mm 0.00 in0.0 mm
06:30 AM 24.3°F-4.3°C 21.3°F-5.9°C 88% Calm Calm -- 29.78 in1008.5 mb - 0.00 in0.0 mm 0.00 in0.0 mm
06:40 AM 24.3°F-4.3°C 21.3°F-5.9°C 88% Calm Calm -- 29.78 in1008.5 mb - 0.00 in0.0 mm 0.00 in0.0 mm
06:50 AM 24.3°F-4.3°C 21.3°F-5.9°C 88% Calm Calm -- 29.78 in1008.5 mb - 0.00 in0.0 mm 0.00 in0.0 mm
07:00 AM 24.3°F-4.3°C 21.3°F-5.9°C 88% Calm Calm -- 29.78 in1008.5 mb - 0.00 in0.0 mm 0.00 in0.0 mm
07:10 AM 24.3°F-4.3°C 21.3°F-5.9°C 88% Calm Calm -- 29.78 in1008.5 mb - 0.00 in0.0 mm 0.00 in0.0 mm
07:20 AM 24.3°F-4.3°C 21.3°F-5.9°C 88% Calm Calm -- 29.78 in1008.5 mb - 0.00 in0.0 mm 0.00 in0.0 mm
07:30 AM 24.4°F-4.2°C 21.4°F-5.9°C 88% Calm Calm -- 29.78 in1008.5 mb - 0.00 in0.0 mm 0.00 in0.0 mm
07:40 AM 24.4°F-4.2°C 21.4°F-5.9°C 88% Calm Calm -- 29.77 in1008.1 mb - 0.00 in0.0 mm 0.00 in0.0 mm
07:50 AM 24.4°F-4.2°C 21.4°F-5.9°C 88% Calm Calm -- 29.77 in1008.1 mb - 0.00 in0.0 mm 0.00 in0.0 mm
08:00 AM 24.4°F-4.2°C 21.4°F-5.9°C 88% Calm Calm -- 29.77 in1008.1 mb - 0.00 in0.0 mm 0.00 in0.0 mm
08:10 AM 24.5°F-4.2°C 21.5°F-5.8°C 88% Calm Calm -- 29.77 in1008.1 mb - 0.00 in0.0 mm 0.00 in0.0 mm
08:20 AM 24.6°F-4.1°C 21.6°F-5.8°C 88% 1.2 mph W1.9 kmh W 3.5 mph5.6 kmh 29.77 in1008.1 mb - 0.00 in0.0 mm 0.00 in0.0 mm
08:30 AM 24.7°F-4.1°C 21.7°F-5.7°C 88% 1.2 mph W1.9 kmh W 3.5 mph5.6 kmh 29.78 in1008.5 mb - 0.00 in0.0 mm 0.00 in0.0 mm
08:40 AM 24.7°F-4.1°C 21.7°F-5.7°C 88% 2.3 mph NW3.7 kmh NW 4.6 mph7.4 kmh 29.78 in1008.5 mb - 0.00 in0.0 mm 0.00 in0.0 mm
08:50 AM 24.7°F-4.1°C 21.4°F-5.9°C 87% 1.2 mph NW1.9 kmh NW 2.3 mph3.7 kmh 29.78 in1008.5 mb - 0.00 in0.0 mm 0.00 in0.0 mm
09:00 AM 23.7°F-4.6°C 20.1°F-6.6°C 86% 3.5 mph WSW5.6 kmh WSW 8.1 mph13.0 kmh 29.79 in1008.8 mb - 0.00 in0.0 mm 0.00 in0.0 mm
09:10 AM 21.2°F-6.0°C 17.4°F-8.1°C 85% 3.5 mph WNW5.6 kmh WNW 15.0 mph24.1 kmh 29.80 in1009.1 mb - 0.00 in0.0 mm 0.00 in0.0 mm
09:20 AM 19.5°F-6.9°C 15.5°F-9.2°C 84% 2.3 mph WNW3.7 kmh WNW 3.5 mph5.6 kmh 29.81 in1009.5 mb - 0.00 in0.0 mm 0.00 in0.0 mm
09:30 AM 17.7°F-7.9°C 13.5°F-10.3°C 83% 3.5 mph WNW5.6 kmh WNW 5.8 mph9.3 kmh 29.82 in1009.8 mb - 0.00 in0.0 mm 0.00 in0.0 mm
09:40 AM 16.0°F-8.9°C 11.5°F-11.4°C 82% 2.3 mph WNW3.7 kmh WNW 9.2 mph14.8 kmh 29.83 in1010.2 mb - 0.00 in0.0 mm 0.00 in0.0 mm
09:50 AM 14.4°F-9.8°C 9.7°F-12.4°C 81% 5.8 mph W9.3 kmh W 10.4 mph16.7 kmh 29.84 in1010.5 mb - 0.00 in0.0 mm 0.00 in0.0 mm
10:00 AM 13.8°F-10.1°C 9.1°F-12.7°C 81% 4.6 mph W7.4 kmh W 5.8 mph9.3 kmh 29.85 in1010.8 mb - 0.00 in0.0 mm 0.00 in0.0 mm
10:10 AM 12.7°F-10.7°C 7.7°F-13.5°C 80% 4.6 mph W7.4 kmh W 9.2 mph14.8 kmh 29.86 in1011.2 mb - 0.00 in0.0 mm 0.00 in0.0 mm
10:20 AM 12.6°F-10.8°C 7.6°F-13.6°C 80% 4.6 mph W7.4 kmh W 15.0 mph24.1 kmh 29.86 in1011.2 mb - 0.00 in0.0 mm 0.00 in0.0 mm
10:30 AM 12.2°F-11.0°C 6.9°F-13.9°C 79% 1.2 mph NW1.9 kmh NW 6.9 mph11.1 kmh 29.87 in1011.5 mb - 0.00 in0.0 mm 0.00 in0.0 mm
10:40 AM 11.6°F-11.3°C 6.0°F-14.4°C 78% 5.8 mph NW9.3 kmh NW 10.4 mph16.7 kmh 29.88 in1011.9 mb - 0.00 in0.0 mm 0.00 in0.0 mm
10:50 AM 11.3°F-11.5°C 6.1°F-14.4°C 79% 4.6 mph W7.4 kmh W 5.8 mph9.3 kmh 29.88 in1011.9 mb - 0.00 in0.0 mm 0.00 in0.0 mm
11:00 AM 11.5°F-11.4°C 6.0°F-14.4°C 78% 4.6 mph W7.4 kmh W 9.2 mph14.8 kmh 29.88 in1011.9 mb - 0.00 in0.0 mm 0.00 in0.0 mm
11:10 AM 11.1°F-11.6°C 5.6°F-14.7°C 78% 4.6 mph W7.4 kmh W 6.9 mph11.1 kmh 29.88 in1011.9 mb - 0.00 in0.0 mm 0.00 in0.0 mm
11:20 AM 10.6°F-11.9°C 5.1°F-14.9°C 78% 3.5 mph W5.6 kmh W 4.6 mph7.4 kmh 29.88 in1011.9 mb - 0.00 in0.0 mm 0.00 in0.0 mm
11:30 AM 10.1°F-12.2°C 4.3°F-15.4°C 77% 4.6 mph W7.4 kmh W 10.4 mph16.7 kmh 29.89 in1012.2 mb - 0.00 in0.0 mm 0.00 in0.0 mm
11:40 AM 10.1°F-12.2°C 4.3°F-15.4°C 77% 5.8 mph WNW9.3 kmh WNW 12.7 mph20.4 kmh 29.89 in1012.2 mb - 0.00 in0.0 mm 0.00 in0.0 mm
11:50 AM 10.2°F-12.1°C 4.5°F-15.3°C 77% 2.3 mph W3.7 kmh W 1.2 mph1.9 kmh 29.90 in1012.5 mb - 0.00 in0.0 mm 0.00 in0.0 mm
12:00 PM 9.9°F-12.3°C 4.1°F-15.5°C 77% 3.5 mph W5.6 kmh W 5.8 mph9.3 kmh 29.90 in1012.5 mb - 0.00 in0.0 mm 0.00 in0.0 mm
12:10 PM 9.8°F-12.3°C 4.0°F-15.6°C 77% 5.8 mph WNW9.3 kmh WNW 18.4 mph29.6 kmh 29.90 in1012.5 mb - 0.00 in0.0 mm 0.00 in0.0 mm
12:20 PM 10.0°F-12.2°C 3.9°F-15.6°C 76% 3.5 mph NW5.6 kmh NW 6.9 mph11.1 kmh 29.91 in1012.9 mb - 0.00 in0.0 mm 0.00 in0.0 mm
12:30 PM 9.6°F-12.4°C 3.6°F-15.8°C 76% 5.8 mph WNW9.3 kmh WNW 8.1 mph13.0 kmh 29.90 in1012.5 mb - 0.00 in0.0 mm 0.00 in0.0 mm
12:40 PM 9.9°F-12.3°C 3.8°F-15.7°C 76% 3.5 mph W5.6 kmh W 5.8 mph9.3 kmh 29.91 in1012.9 mb - 0.00 in0.0 mm 0.00 in0.0 mm
12:50 PM 9.9°F-12.3°C 3.5°F-15.8°C 75% 4.6 mph NW7.4 kmh NW 8.1 mph13.0 kmh 29.91 in1012.9 mb - 0.00 in0.0 mm 0.00 in0.0 mm
01:00 PM 9.6°F-12.4°C 3.3°F-15.9°C 75% 6.9 mph W11.1 kmh W 19.6 mph31.5 kmh 29.91 in1012.9 mb - 0.00 in0.0 mm 0.00 in0.0 mm
01:10 PM 9.7°F-12.4°C 3.1°F-16.1°C 74% 4.6 mph WNW7.4 kmh WNW 11.5 mph18.5 kmh 29.91 in1012.9 mb - 0.00 in0.0 mm 0.00 in0.0 mm
01:20 PM 9.4°F-12.6°C 2.5°F-16.4°C 73% 5.8 mph NW9.3 kmh NW 9.2 mph14.8 kmh 29.92 in1013.2 mb - 0.00 in0.0 mm 0.00 in0.0 mm
01:30 PM 9.1°F-12.7°C 2.5°F-16.4°C 74% 5.8 mph WNW9.3 kmh WNW 9.2 mph14.8 kmh 29.92 in1013.2 mb - 0.00 in0.0 mm 0.00 in0.0 mm
01:40 PM 9.2°F-12.7°C 2.3°F-16.5°C 73% 3.5 mph NW5.6 kmh NW 11.5 mph18.5 kmh 29.93 in1013.5 mb - 0.00 in0.0 mm 0.00 in0.0 mm
01:50 PM 9.6°F-12.4°C 3.0°F-16.1°C 74% 3.5 mph WNW5.6 kmh WNW 12.7 mph20.4 kmh 29.93 in1013.5 mb - 0.00 in0.0 mm 0.00 in0.0 mm
02:00 PM 9.8°F-12.3°C 3.2°F-16.0°C 74% 5.8 mph WNW9.3 kmh WNW 10.4 mph16.7 kmh 29.93 in1013.5 mb - 0.00 in0.0 mm 0.00 in0.0 mm
02:10 PM 10.1°F-12.2°C 3.4°F-15.9°C 74% 3.5 mph W5.6 kmh W 5.8 mph9.3 kmh 29.94 in1013.9 mb - 0.00 in0.0 mm 0.00 in0.0 mm
02:20 PM 10.4°F-12.0°C 3.8°F-15.7°C 74% 1.2 mph W1.9 kmh W 9.2 mph14.8 kmh 29.94 in1013.9 mb - 0.00 in0.0 mm 0.00 in0.0 mm
02:30 PM 10.0°F-12.2°C 3.1°F-16.1°C 73% 4.6 mph W7.4 kmh W 12.7 mph20.4 kmh 29.94 in1013.9 mb - 0.00 in0.0 mm 0.00 in0.0 mm
02:40 PM 9.6°F-12.4°C 3.0°F-16.1°C 74% 3.5 mph WNW5.6 kmh WNW 17.3 mph27.8 kmh 29.95 in1014.2 mb - 0.00 in0.0 mm 0.00 in0.0 mm
02:50 PM 9.5°F-12.5°C 2.9°F-16.2°C 74% 2.3 mph W3.7 kmh W 9.2 mph14.8 kmh 29.95 in1014.2 mb - 0.00 in0.0 mm 0.00 in0.0 mm
03:00 PM 9.5°F-12.5°C 2.9°F-16.2°C 74% 3.5 mph WNW5.6 kmh WNW 8.1 mph13.0 kmh 29.96 in1014.6 mb - 0.00 in0.0 mm 0.00 in0.0 mm
03:10 PM 9.8°F-12.3°C 3.2°F-16.0°C 74% 1.2 mph NW1.9 kmh NW 8.1 mph13.0 kmh 29.97 in1014.9 mb - 0.00 in0.0 mm 0.00 in0.0 mm
03:20 PM 9.6°F-12.4°C 3.0°F-16.1°C 74% 4.6 mph WNW7.4 kmh WNW 10.4 mph16.7 kmh 29.97 in1014.9 mb - 0.00 in0.0 mm 0.00 in0.0 mm
03:30 PM 9.2°F-12.7°C 2.6°F-16.3°C 74% 3.5 mph W5.6 kmh W 12.7 mph20.4 kmh 29.98 in1015.2 mb - 0.00 in0.0 mm 0.00 in0.0 mm
03:40 PM 9.2°F-12.7°C 2.9°F-16.2°C 75% 2.3 mph WNW3.7 kmh WNW 5.8 mph9.3 kmh 29.99 in1015.6 mb - 0.00 in0.0 mm 0.00 in0.0 mm
03:50 PM 9.0°F-12.8°C 2.7°F-16.3°C 75% 1.2 mph W1.9 kmh W 5.8 mph9.3 kmh 29.99 in1015.6 mb - 0.00 in0.0 mm 0.00 in0.0 mm
04:00 PM 9.0°F-12.8°C 2.7°F-16.3°C 75% 3.5 mph WNW5.6 kmh WNW 8.1 mph13.0 kmh 30.00 in1015.9 mb - 0.00 in0.0 mm 0.00 in0.0 mm
04:10 PM 8.5°F-13.1°C 1.9°F-16.7°C 74% 3.5 mph WNW5.6 kmh WNW 3.5 mph5.6 kmh 30.01 in1016.3 mb - 0.00 in0.0 mm 0.00 in0.0 mm
04:20 PM 8.2°F-13.2°C 1.3°F-17.1°C 73% 2.3 mph WNW3.7 kmh WNW 11.5 mph18.5 kmh 30.01 in1016.3 mb - 0.00 in0.0 mm 0.00 in0.0 mm
04:30 PM 7.8°F-13.4°C 0.9°F-17.3°C 73% 2.3 mph WNW3.7 kmh WNW 5.8 mph9.3 kmh 30.01 in1016.3 mb - 0.00 in0.0 mm 0.00 in0.0 mm
04:40 PM 7.1°F-13.8°C 0.6°F-17.4°C 74% 3.5 mph W5.6 kmh W 5.8 mph9.3 kmh 30.02 in1016.6 mb - 0.00 in0.0 mm 0.00 in0.0 mm
04:50 PM 6.4°F-14.2°C -0.1°F-17.8°C 74% 3.5 mph W5.6 kmh W 11.5 mph18.5 kmh 30.03 in1016.9 mb - 0.00 in0.0 mm 0.00 in0.0 mm
05:00 PM 6.0°F-14.4°C -0.5°F-18.1°C 74% 2.3 mph WSW3.7 kmh WSW 3.5 mph5.6 kmh 30.04 in1017.3 mb - 0.00 in0.0 mm 0.00 in0.0 mm
05:10 PM 5.7°F-14.6°C -0.8°F-18.2°C 74% 1.2 mph WNW1.9 kmh WNW 5.8 mph9.3 kmh 30.05 in1017.6 mb - 0.00 in0.0 mm 0.00 in0.0 mm
05:20 PM 5.5°F-14.7°C -1.3°F-18.5°C 73% 2.3 mph WNW3.7 kmh WNW 6.9 mph11.1 kmh 30.05 in1017.6 mb - 0.00 in0.0 mm 0.00 in0.0 mm
05:30 PM 5.4°F-14.8°C -1.4°F-18.6°C 73% 2.3 mph W3.7 kmh W 10.4 mph16.7 kmh 30.06 in1017.9 mb - 0.00 in0.0 mm 0.00 in0.0 mm
05:40 PM 5.3°F-14.8°C -1.8°F-18.8°C 72% 4.6 mph W7.4 kmh W 15.0 mph24.1 kmh 30.07 in1018.3 mb - 0.00 in0.0 mm 0.00 in0.0 mm
05:50 PM 5.1°F-14.9°C -2.2°F-19.0°C 71% 2.3 mph WNW3.7 kmh WNW 4.6 mph7.4 kmh 30.08 in1018.6 mb - 0.00 in0.0 mm 0.00 in0.0 mm
06:00 PM 4.8°F-15.1°C -2.2°F-19.0°C 72% 2.3 mph WSW3.7 kmh WSW 5.8 mph9.3 kmh 30.08 in1018.6 mb - 0.00 in0.0 mm 0.00 in0.0 mm
06:10 PM 4.5°F-15.3°C -2.5°F-19.2°C 72% 3.5 mph W5.6 kmh W 6.9 mph11.1 kmh 30.09 in1019.0 mb - 0.00 in0.0 mm 0.00 in0.0 mm
06:20 PM 4.3°F-15.4°C -2.7°F-19.3°C 72% Calm Calm 3.5 mph5.6 kmh 30.09 in1019.0 mb - 0.00 in0.0 mm 0.00 in0.0 mm
06:30 PM 4.0°F-15.6°C -3.0°F-19.4°C 72% 3.5 mph W5.6 kmh W 8.1 mph13.0 kmh 30.10 in1019.3 mb - 0.00 in0.0 mm 0.00 in0.0 mm
06:40 PM 3.3°F-15.9°C -3.7°F-19.8°C 72% 1.2 mph WNW1.9 kmh WNW 4.6 mph7.4 kmh 30.10 in1019.3 mb - 0.00 in0.0 mm 0.00 in0.0 mm
06:50 PM 2.8°F-16.2°C -3.9°F-19.9°C 73% 1.2 mph W1.9 kmh W 3.5 mph5.6 kmh 30.11 in1019.6 mb - 0.00 in0.0 mm 0.00 in0.0 mm
07:00 PM 2.6°F-16.3°C -4.1°F-20.1°C 73% 1.2 mph WNW1.9 kmh WNW 2.3 mph3.7 kmh 30.11 in1019.6 mb - 0.00 in0.0 mm 0.00 in0.0 mm
07:10 PM 2.6°F-16.3°C -4.1°F-20.1°C 73% 2.3 mph WNW3.7 kmh WNW 3.5 mph5.6 kmh 30.12 in1020.0 mb - 0.00 in0.0 mm 0.00 in0.0 mm
07:20 PM 2.6°F-16.3°C -4.1°F-20.1°C 73% 2.3 mph WSW3.7 kmh WSW 5.8 mph9.3 kmh 30.12 in1020.0 mb - 0.00 in0.0 mm 0.00 in0.0 mm
07:30 PM 2.5°F-16.4°C -4.2°F-20.1°C 73% Calm Calm 1.2 mph1.9 kmh 30.12 in1020.0 mb - 0.00 in0.0 mm 0.00 in0.0 mm
07:40 PM 2.5°F-16.4°C -4.2°F-20.1°C 73% 1.2 mph WNW1.9 kmh WNW 2.3 mph3.7 kmh 30.13 in1020.3 mb - 0.00 in0.0 mm 0.00 in0.0 mm
07:50 PM 2.4°F-16.4°C -4.3°F-20.2°C 73% 1.2 mph WNW1.9 kmh WNW -- 30.13 in1020.3 mb - 0.00 in0.0 mm 0.00 in0.0 mm
08:00 PM 2.3°F-16.5°C -4.4°F-20.2°C 73% 2.3 mph WNW3.7 kmh WNW 5.8 mph9.3 kmh 30.14 in1020.7 mb - 0.00 in0.0 mm 0.00 in0.0 mm
08:10 PM 2.3°F-16.5°C -4.4°F-20.2°C 73% 2.3 mph W3.7 kmh W 5.8 mph9.3 kmh 30.14 in1020.7 mb - 0.00 in0.0 mm 0.00 in0.0 mm
08:20 PM 2.4°F-16.4°C -4.3°F-20.2°C 73% 2.3 mph WNW3.7 kmh WNW 6.9 mph11.1 kmh 30.14 in1020.7 mb - 0.00 in0.0 mm 0.00 in0.0 mm
08:30 PM 2.5°F-16.4°C -4.5°F-20.3°C 72% 1.2 mph NW1.9 kmh NW 3.5 mph5.6 kmh 30.15 in1021.0 mb - 0.00 in0.0 mm 0.00 in0.0 mm
08:40 PM 2.4°F-16.4°C -4.6°F-20.3°C 72% 2.3 mph WNW3.7 kmh WNW 3.5 mph5.6 kmh 30.15 in1021.0 mb - 0.00 in0.0 mm 0.00 in0.0 mm
08:50 PM 2.4°F-16.4°C -4.6°F-20.3°C 72% 3.5 mph NW5.6 kmh NW 8.1 mph13.0 kmh 30.16 in1021.3 mb - 0.00 in0.0 mm 0.00 in0.0 mm
09:00 PM 2.3°F-16.5°C -4.7°F-20.4°C 72% 2.3 mph W3.7 kmh W 10.4 mph16.7 kmh 30.16 in1021.3 mb - 0.00 in0.0 mm 0.00 in0.0 mm
09:10 PM 2.3°F-16.5°C -4.7°F-20.4°C 72% 4.6 mph W7.4 kmh W 12.7 mph20.4 kmh 30.16 in1021.3 mb - 0.00 in0.0 mm 0.00 in0.0 mm
09:20 PM 2.1°F-16.6°C -4.9°F-20.5°C 72% 3.5 mph WNW5.6 kmh WNW 10.4 mph16.7 kmh 30.17 in1021.7 mb - 0.00 in0.0 mm 0.00 in0.0 mm
09:30 PM 2.0°F-16.7°C -5.0°F-20.6°C 72% 2.3 mph NW3.7 kmh NW 8.1 mph13.0 kmh 30.17 in1021.7 mb - 0.00 in0.0 mm 0.00 in0.0 mm
09:40 PM 2.0°F-16.7°C -5.0°F-20.6°C 72% 2.3 mph WNW3.7 kmh WNW 5.8 mph9.3 kmh 30.17 in1021.7 mb - 0.00 in0.0 mm 0.00 in0.0 mm
09:50 PM 2.0°F-16.7°C -5.0°F-20.6°C 72% 2.3 mph NW3.7 kmh NW 9.2 mph14.8 kmh 30.17 in1021.7 mb - 0.00 in0.0 mm 0.00 in0.0 mm
10:00 PM 1.9°F-16.7°C -5.1°F-20.6°C 72% 2.3 mph NNW3.7 kmh NNW 5.8 mph9.3 kmh 30.17 in1021.7 mb - 0.00 in0.0 mm 0.00 in0.0 mm
10:10 PM 1.8°F-16.8°C -4.9°F-20.5°C 73% 1.2 mph WNW1.9 kmh WNW 4.6 mph7.4 kmh 30.18 in1022.0 mb - 0.00 in0.0 mm 0.00 in0.0 mm
10:20 PM 1.8°F-16.8°C -4.9°F-20.5°C 73% 2.3 mph WNW3.7 kmh WNW 6.9 mph11.1 kmh 30.18 in1022.0 mb - 0.00 in0.0 mm 0.00 in0.0 mm
10:30 PM 1.8°F-16.8°C -4.9°F-20.5°C 73% 2.3 mph NW3.7 kmh NW 6.9 mph11.1 kmh 30.18 in1022.0 mb - 0.00 in0.0 mm 0.00 in0.0 mm
10:40 PM 1.8°F-16.8°C -4.9°F-20.5°C 73% 1.2 mph NW1.9 kmh NW 4.6 mph7.4 kmh 30.18 in1022.0 mb - 0.00 in0.0 mm 0.00 in0.0 mm
10:50 PM 1.8°F-16.8°C -4.9°F-20.5°C 73% 2.3 mph NW3.7 kmh NW 4.6 mph7.4 kmh 30.19 in1022.4 mb - 0.00 in0.0 mm 0.00 in0.0 mm
11:00 PM 1.8°F-16.8°C -4.9°F-20.5°C 73% Calm Calm 2.3 mph3.7 kmh 30.19 in1022.4 mb - 0.00 in0.0 mm 0.00 in0.0 mm
11:10 PM 1.9°F-16.7°C -4.8°F-20.4°C 73% 2.3 mph NNW3.7 kmh NNW 6.9 mph11.1 kmh 30.20 in1022.7 mb - 0.00 in0.0 mm 0.00 in0.0 mm
11:20 PM 1.9°F-16.7°C -4.7°F-20.4°C 73% 2.3 mph NW3.7 kmh NW 9.2 mph14.8 kmh 30.20 in1022.7 mb - 0.00 in0.0 mm 0.00 in0.0 mm
11:30 PM 2.0°F-16.7°C -4.7°F-20.4°C 73% 3.5 mph W5.6 kmh W 8.1 mph13.0 kmh 30.21 in1023.0 mb - 0.00 in0.0 mm 0.00 in0.0 mm
11:40 PM 2.0°F-16.7°C -4.7°F-20.4°C 73% 1.2 mph WNW1.9 kmh WNW 3.5 mph5.6 kmh 30.22 in1023.4 mb - 0.00 in0.0 mm 0.00 in0.0 mm
11:50 PM 1.9°F-16.7°C -4.8°F-20.4°C 73% 1.2 mph NW1.9 kmh NW 1.2 mph1.9 kmh 30.23 in1023.7 mb - 0.00 in0.0 mm 0.00 in0.0 mm